Time;durP1;ratioP1;P1;durP2;ratioP2;P2;SDS_P1;SDS_P2;PMS_P1;PMS_P2;Temp;Humidity;BMP_temperature;BMP_pressure;BME280_temperature;BME280_humidity;BME280_pressure;Samples;Min_cycle;Max_cycle;Signal;HPM_P1;HPM_P2
2023/11/28 00:00:32;;;;;;;22.95;13.43;;;1.30;99.90;;;;;;5035647;28;20064;-73
2023/11/28 00:02:58;;;;;;;26.45;14.10;;;1.30;99.90;;;;;;5035803;28;20026;-71
2023/11/28 00:05:24;;;;;;;23.83;14.70;;;1.20;99.90;;;;;;5035879;28;20471;-73
2023/11/28 00:07:49;;;;;;;23.10;12.65;;;1.20;99.90;;;;;;5035642;28;20051;-72
2023/11/28 00:10:15;;;;;;;19.88;11.88;;;1.30;99.90;;;;;;5035471;28;20088;-74
2023/11/28 00:12:40;;;;;;;21.50;12.15;;;1.30;99.90;;;;;;5035302;28;20037;-72
2023/11/28 00:15:06;;;;;;;20.45;11.73;;;1.20;99.90;;;;;;5035561;28;20112;-72
2023/11/28 00:17:32;;;;;;;20.30;12.38;;;1.30;99.90;;;;;;5035390;28;20026;-74
2023/11/28 00:19:57;;;;;;;18.42;10.20;;;1.20;99.90;;;;;;5035342;28;20045;-73
2023/11/28 00:22:23;;;;;;;18.27;10.95;;;1.20;99.90;;;;;;5035363;28;20021;-73
2023/11/28 00:24:49;;;;;;;16.48;11.07;;;1.20;99.90;;;;;;5034932;28;20083;-73
2023/11/28 00:27:15;;;;;;;14.82;9.63;;;1.20;99.90;;;;;;5035200;28;20106;-74
2023/11/28 00:29:40;;;;;;;13.57;8.40;;;1.20;99.90;;;;;;5035194;28;20030;-71
2023/11/28 00:32:06;;;;;;;13.40;8.18;;;1.20;99.90;;;;;;5035130;28;20029;-73
2023/11/28 00:34:32;;;;;;;12.65;8.43;;;1.20;99.90;;;;;;5034632;28;20056;-73
2023/11/28 00:36:58;;;;;;;13.32;8.70;;;1.20;99.90;;;;;;5034636;28;20052;-73
2023/11/28 00:39:23;;;;;;;13.35;8.43;;;1.20;99.90;;;;;;5034659;28;20065;-74
2023/11/28 00:41:49;;;;;;;11.65;7.93;;;1.20;99.90;;;;;;5034794;28;20021;-71
2023/11/28 00:44:14;;;;;;;11.75;8.57;;;1.20;99.90;;;;;;5034784;28;20033;-71
2023/11/28 00:46:41;;;;;;;11.40;8.80;;;1.20;99.90;;;;;;5034938;28;20033;-72
2023/11/28 00:49:08;;;;;;;11.45;8.98;;;1.20;99.90;;;;;;5034911;28;20036;-72
2023/11/28 00:51:34;;;;;;;11.43;8.20;;;1.20;99.90;;;;;;5034754;28;20116;-74
2023/11/28 00:54:00;;;;;;;12.57;9.70;;;1.20;99.90;;;;;;5034610;28;20116;-72
2023/11/28 00:56:26;;;;;;;12.27;8.55;;;1.20;99.90;;;;;;5034846;28;20113;-74
2023/11/28 00:58:51;;;;;;;13.00;9.55;;;1.20;99.90;;;;;;5034252;28;20056;-73
2023/11/28 01:01:18;;;;;;;15.43;9.10;;;1.20;99.90;;;;;;5034113;28;20033;-74
2023/11/28 01:03:43;;;;;;;11.65;8.30;;;1.20;99.90;;;;;;5033380;28;20033;-73
2023/11/28 01:06:09;;;;;;;14.07;10.07;;;1.20;99.90;;;;;;5034521;28;20030;-72
2023/11/28 01:08:36;;;;;;;14.65;9.70;;;1.20;99.90;;;;;;5034884;28;20056;-73
2023/11/28 01:11:02;;;;;;;15.32;9.93;;;1.20;99.90;;;;;;5034640;28;20025;-72
2023/11/28 01:13:28;;;;;;;16.27;9.98;;;1.20;99.90;;;;;;5034906;28;20475;-74
2023/11/28 01:15:54;;;;;;;13.45;8.95;;;1.20;99.90;;;;;;5034656;28;20086;-74
2023/11/28 01:18:20;;;;;;;12.27;8.73;;;1.20;99.90;;;;;;5034186;28;20186;-70
2023/11/28 01:20:45;;;;;;;12.55;9.27;;;1.20;99.90;;;;;;5033956;28;20124;-71
2023/11/28 01:23:11;;;;;;;13.85;9.20;;;1.20;99.90;;;;;;5034339;28;20022;-70
2023/11/28 01:25:37;;;;;;;11.40;7.80;;;1.10;99.90;;;;;;5034335;28;20063;-69
2023/11/28 01:28:03;;;;;;;12.63;8.77;;;1.10;99.90;;;;;;5034309;28;20025;-71
2023/11/28 01:30:29;;;;;;;13.25;9.52;;;1.10;99.90;;;;;;5034261;28;20047;-71
2023/11/28 01:32:55;;;;;;;12.82;9.15;;;1.10;99.90;;;;;;5034548;28;20033;-71
2023/11/28 01:35:20;;;;;;;13.73;9.82;;;1.10;99.90;;;;;;5033963;28;20055;-71
2023/11/28 01:37:46;;;;;;;13.55;9.35;;;1.10;99.90;;;;;;5034513;28;20029;-70
2023/11/28 01:40:12;;;;;;;17.58;10.50;;;1.10;99.90;;;;;;5033892;28;20029;-70
2023/11/28 01:42:38;;;;;;;13.70;10.30;;;1.10;99.90;;;;;;5033889;28;20021;-70
2023/11/28 01:45:05;;;;;;;14.57;10.23;;;1.10;99.90;;;;;;5034374;28;20032;-70
2023/11/28 01:47:33;;;;;;;15.70;10.82;;;1.10;99.90;;;;;;5034145;28;20022;-72
2023/11/28 01:49:59;;;;;;;18.40;11.02;;;1.10;99.90;;;;;;5034216;28;20033;-70
2023/11/28 01:52:25;;;;;;;14.98;11.07;;;1.10;99.90;;;;;;5033780;28;20473;-69
2023/11/28 01:54:51;;;;;;;16.83;10.68;;;1.10;99.90;;;;;;5033980;28;20037;-69
2023/11/28 01:57:16;;;;;;;15.82;10.20;;;1.10;99.90;;;;;;5034230;28;20056;-71
2023/11/28 01:59:45;;;;;;;16.05;11.45;;;1.10;99.90;;;;;;5033687;28;20029;-72
2023/11/28 02:02:11;;;;;;;17.05;10.85;;;1.10;99.90;;;;;;5033491;28;20491;-71
2023/11/28 02:04:36;;;;;;;15.15;10.18;;;1.10;99.90;;;;;;5033773;28;20056;-70
2023/11/28 02:07:02;;;;;;;18.25;11.52;;;1.10;99.90;;;;;;5033161;28;20128;-69
2023/11/28 02:09:28;;;;;;;15.00;9.35;;;1.10;99.90;;;;;;5033845;28;20041;-69
2023/11/28 02:11:53;;;;;;;17.50;10.82;;;1.10;99.90;;;;;;5032785;28;20033;-69
2023/11/28 02:14:19;;;;;;;18.17;12.88;;;1.10;99.90;;;;;;5033027;28;20033;-71
2023/11/28 02:16:45;;;;;;;16.08;10.48;;;1.10;99.90;;;;;;5033202;28;20036;-71
2023/11/28 02:19:10;;;;;;;14.55;10.02;;;1.10;99.90;;;;;;5032644;28;20099;-69
2023/11/28 02:21:37;;;;;;;16.75;12.07;;;1.10;99.90;;;;;;5033151;28;20021;-68
2023/11/28 02:24:04;;;;;;;18.23;12.95;;;1.10;99.90;;;;;;5033182;28;20029;-69
2023/11/28 02:26:30;;;;;;;19.65;13.43;;;1.10;99.90;;;;;;5032707;28;20024;-71
2023/11/28 02:28:56;;;;;;;19.02;12.73;;;1.10;99.90;;;;;;5033320;28;20030;-71
2023/11/28 02:31:22;;;;;;;19.17;12.70;;;1.10;99.90;;;;;;5032817;28;20116;-71
2023/11/28 02:33:48;;;;;;;18.90;13.20;;;1.10;99.90;;;;;;5032814;28;20061;-70
2023/11/28 02:36:14;;;;;;;18.52;13.35;;;1.10;99.90;;;;;;5032765;28;20033;-69
2023/11/28 02:38:41;;;;;;;21.17;13.38;;;1.10;99.90;;;;;;5032701;28;20525;-71
2023/11/28 02:41:07;;;;;;;17.30;11.75;;;1.00;99.90;;;;;;5032580;28;20472;-70
2023/11/28 02:43:33;;;;;;;16.15;11.68;;;1.00;99.90;;;;;;5032445;28;20117;-70
2023/11/28 02:45:58;;;;;;;17.08;12.27;;;1.10;99.90;;;;;;5032766;28;20036;-68
2023/11/28 02:48:24;;;;;;;16.35;11.15;;;1.00;99.90;;;;;;5032637;28;20369;-71
2023/11/28 02:50:49;;;;;;;17.40;11.02;;;1.00;99.90;;;;;;5032252;28;20056;-70
2023/11/28 02:53:17;;;;;;;14.85;10.27;;;1.00;99.90;;;;;;5032612;28;20364;-69
2023/11/28 02:55:42;;;;;;;15.82;10.90;;;1.00;99.90;;;;;;5032597;28;20116;-69
2023/11/28 02:58:08;;;;;;;11.05;8.68;;;1.00;99.90;;;;;;5032243;28;20071;-71
2023/11/28 03:00:33;;;;;;;13.48;10.57;;;1.00;99.90;;;;;;5032363;28;20056;-69
2023/11/28 03:02:59;;;;;;;14.25;10.35;;;1.00;99.90;;;;;;5032498;28;20030;-69
2023/11/28 03:05:25;;;;;;;14.10;9.88;;;1.00;99.90;;;;;;5032443;28;20429;-69
2023/11/28 03:07:51;;;;;;;13.50;9.02;;;1.00;99.90;;;;;;5032445;28;20021;-71
2023/11/28 03:10:16;;;;;;;12.68;9.60;;;1.00;99.90;;;;;;5032496;28;20526;-70
2023/11/28 03:12:42;;;;;;;13.02;9.50;;;1.00;99.90;;;;;;5032262;28;20041;-71
2023/11/28 03:15:08;;;;;;;12.77;9.82;;;1.00;99.90;;;;;;5032079;28;20033;-70
2023/11/28 03:17:33;;;;;;;14.15;9.60;;;1.00;99.90;;;;;;5032441;28;20080;-72
2023/11/28 03:19:59;;;;;;;12.55;9.27;;;1.00;99.90;;;;;;5032051;28;20102;-72
2023/11/28 03:22:24;;;;;;;11.60;7.93;;;1.00;99.90;;;;;;5032295;28;20037;-71
2023/11/28 03:24:51;;;;;;;12.63;8.68;;;1.00;99.90;;;;;;5032320;28;20032;-71
2023/11/28 03:27:18;;;;;;;14.05;9.10;;;0.90;99.90;;;;;;5033093;28;20053;-71
2023/11/28 03:29:44;;;;;;;12.75;8.80;;;0.90;99.90;;;;;;5035816;28;20029;-69
2023/11/28 03:32:10;;;;;;;15.57;10.00;;;0.90;99.90;;;;;;5035861;28;20033;-71
2023/11/28 03:34:38;;;;;;;10.15;8.07;;;1.00;99.90;;;;;;5035924;28;20112;-72
2023/11/28 03:37:03;;;;;;;13.88;10.20;;;1.00;99.90;;;;;;5035612;28;20080;-70
2023/11/28 03:39:29;;;;;;;13.20;10.55;;;1.00;99.90;;;;;;5035701;28;20061;-70
2023/11/28 03:41:54;;;;;;;12.85;8.18;;;0.90;99.90;;;;;;5035685;28;20067;-71
2023/11/28 03:44:20;;;;;;;14.30;10.20;;;1.00;99.90;;;;;;5035594;28;20060;-70
2023/11/28 03:46:45;;;;;;;15.02;10.25;;;1.00;99.90;;;;;;5035604;28;20025;-72
2023/11/28 03:49:11;;;;;;;14.30;9.55;;;1.00;99.90;;;;;;5035836;28;20071;-71
2023/11/28 03:51:37;;;;;;;12.32;8.35;;;1.00;99.90;;;;;;5035140;28;20111;-70
2023/11/28 03:54:03;;;;;;;13.70;9.73;;;1.00;99.90;;;;;;5034980;28;20033;-70
2023/11/28 03:56:28;;;;;;;18.10;11.52;;;1.00;99.90;;;;;;5035415;28;20030;-71
2023/11/28 03:58:55;;;;;;;14.23;9.10;;;1.00;99.90;;;;;;5035227;28;20030;-72
2023/11/28 04:01:21;;;;;;;16.42;11.23;;;1.00;99.90;;;;;;5034840;28;20025;-71
2023/11/28 04:03:47;;;;;;;16.42;11.50;;;1.00;99.90;;;;;;5035198;28;20029;-72
2023/11/28 04:06:12;;;;;;;19.77;12.52;;;1.00;99.90;;;;;;5034735;28;20025;-70
2023/11/28 04:08:38;;;;;;;17.25;12.35;;;1.00;99.90;;;;;;5035191;28;20029;-70
2023/11/28 04:11:04;;;;;;;16.42;10.95;;;1.00;99.90;;;;;;5034718;28;20022;-71
2023/11/28 04:13:29;;;;;;;22.20;14.88;;;1.00;99.90;;;;;;5035106;28;20052;-70
2023/11/28 04:15:55;;;;;;;18.67;12.57;;;1.00;99.90;;;;;;5034528;28;20097;-71
2023/11/28 04:18:20;;;;;;;18.33;12.25;;;1.00;99.90;;;;;;5034846;28;20083;-69
2023/11/28 04:20:46;;;;;;;18.65;12.50;;;1.00;99.90;;;;;;5034439;28;20148;-71
2023/11/28 04:23:11;;;;;;;21.67;13.75;;;1.00;99.90;;;;;;5034912;28;20038;-70
2023/11/28 04:25:37;;;;;;;18.85;12.35;;;1.00;99.90;;;;;;5034916;28;20022;-70
2023/11/28 04:28:03;;;;;;;17.83;12.02;;;1.00;99.90;;;;;;5034743;28;20126;-69
2023/11/28 04:30:28;;;;;;;17.40;11.55;;;1.00;99.90;;;;;;5034908;28;20064;-71
2023/11/28 04:32:54;;;;;;;20.33;13.10;;;1.00;99.90;;;;;;5034627;28;20025;-71
2023/11/28 04:35:19;;;;;;;21.98;13.40;;;1.00;99.90;;;;;;5034641;28;20029;-72
2023/11/28 04:37:45;;;;;;;17.58;11.73;;;1.00;99.90;;;;;;5034487;28;20045;-71
2023/11/28 04:40:11;;;;;;;24.85;15.35;;;1.00;99.90;;;;;;5034154;28;20033;-72
2023/11/28 04:42:36;;;;;;;19.63;13.30;;;1.00;99.90;;;;;;5034166;28;20112;-69
2023/11/28 04:45:02;;;;;;;21.48;13.57;;;1.00;99.90;;;;;;5034518;28;20021;-70
2023/11/28 04:47:28;;;;;;;19.83;12.20;;;1.00;99.90;;;;;;5034443;28;20053;-70
2023/11/28 04:49:54;;;;;;;22.60;11.95;;;0.90;99.90;;;;;;5033984;28;20513;-69
2023/11/28 04:52:19;;;;;;;21.13;12.75;;;0.90;99.90;;;;;;5034483;28;20032;-69
2023/11/28 04:54:45;;;;;;;21.30;13.15;;;0.90;99.90;;;;;;5034203;28;20129;-70
2023/11/28 04:57:10;;;;;;;24.08;12.50;;;0.90;99.90;;;;;;5034240;28;20079;-71
2023/11/28 04:59:36;;;;;;;20.77;12.75;;;0.90;99.90;;;;;;5034210;28;20107;-70
2023/11/28 05:02:01;;;;;;;19.98;12.63;;;0.90;99.90;;;;;;5034272;28;20026;-71
2023/11/28 05:04:27;;;;;;;18.50;12.00;;;0.90;99.90;;;;;;5034256;28;20033;-70
2023/11/28 05:06:53;;;;;;;21.40;12.35;;;0.90;99.90;;;;;;5034308;28;20038;-72
2023/11/28 05:09:19;;;;;;;25.08;13.20;;;0.90;99.90;;;;;;5033697;28;20108;-70
2023/11/28 05:11:46;;;;;;;20.67;11.43;;;0.90;99.90;;;;;;5034014;28;20035;-70
2023/11/28 05:14:12;;;;;;;21.40;12.23;;;0.90;99.90;;;;;;5033884;28;20026;-70
2023/11/28 05:16:38;;;;;;;25.65;13.10;;;0.90;99.90;;;;;;5033800;28;20055;-70
2023/11/28 05:19:04;;;;;;;26.55;13.35;;;0.90;99.90;;;;;;5033797;28;20037;-72
2023/11/28 05:21:30;;;;;;;20.20;11.60;;;0.90;99.90;;;;;;4994419;28;20063;-70
2023/11/28 05:23:56;;;;;;;21.13;11.85;;;1.00;99.90;;;;;;4994429;28;20384;-70
2023/11/28 05:26:21;;;;;;;18.50;11.75;;;0.90;99.90;;;;;;4994257;28;20032;-69
2023/11/28 05:28:47;;;;;;;18.83;10.40;;;0.90;99.90;;;;;;4994376;28;20085;-69
2023/11/28 05:31:13;;;;;;;19.35;11.00;;;0.90;99.90;;;;;;4993962;28;20072;-71
2023/11/28 05:33:40;;;;;;;19.98;11.50;;;0.90;99.90;;;;;;4993856;28;20042;-69
2023/11/28 05:36:07;;;;;;;21.95;11.25;;;0.90;99.90;;;;;;4994252;28;20505;-69
2023/11/28 05:38:32;;;;;;;15.30;9.35;;;0.80;99.90;;;;;;4994442;28;20547;-70
2023/11/28 05:40:59;;;;;;;20.70;10.93;;;0.80;99.90;;;;;;4994702;28;20026;-69
2023/11/28 05:43:28;;;;;;;18.65;9.52;;;0.80;99.90;;;;;;4994155;28;20161;-70
2023/11/28 05:45:53;;;;;;;15.75;9.68;;;0.80;99.90;;;;;;4994163;28;20022;-71
2023/11/28 05:48:19;;;;;;;15.82;9.20;;;0.80;99.90;;;;;;4993754;28;20109;-72
2023/11/28 05:50:44;;;;;;;17.58;9.93;;;0.70;99.90;;;;;;4992884;28;20034;-70
2023/11/28 05:53:10;;;;;;;17.70;9.13;;;0.70;99.90;;;;;;4993899;28;20031;-71
2023/11/28 05:55:36;;;;;;;18.25;9.40;;;0.70;99.90;;;;;;4993964;28;20037;-69
2023/11/28 05:58:02;;;;;;;15.23;9.80;;;0.70;99.90;;;;;;4994040;28;20392;-72
2023/11/28 06:00:27;;;;;;;16.98;8.75;;;0.70;99.90;;;;;;4993493;28;20023;-72
2023/11/28 06:02:53;;;;;;;20.33;9.75;;;0.70;99.90;;;;;;4993631;28;20390;-72
2023/11/28 06:05:18;;;;;;;18.98;9.73;;;0.70;99.90;;;;;;4993775;28;20122;-70
2023/11/28 06:07:44;;;;;;;16.00;9.82;;;0.70;99.90;;;;;;4993665;28;20380;-71
2023/11/28 06:10:10;;;;;;;17.67;9.43;;;0.70;99.90;;;;;;4993596;28;20042;-69
2023/11/28 06:12:37;;;;;;;19.35;10.13;;;0.70;99.90;;;;;;4993467;28;20076;-70
2023/11/28 06:15:04;;;;;;;17.73;10.30;;;0.70;99.90;;;;;;4993753;28;20503;-71
2023/11/28 06:17:29;;;;;;;17.00;9.95;;;0.60;99.90;;;;;;4993678;28;20372;-73
2023/11/28 06:19:55;;;;;;;17.55;9.65;;;0.60;99.90;;;;;;5006783;28;20053;-71
2023/11/28 06:22:20;;;;;;;14.48;9.02;;;0.60;99.90;;;;;;5033033;28;20048;-70
2023/11/28 06:24:46;;;;;;;13.80;9.07;;;0.50;99.90;;;;;;5032933;28;20041;-70
2023/11/28 06:27:11;;;;;;;14.27;8.48;;;0.50;99.90;;;;;;5032826;28;20029;-72
2023/11/28 06:29:37;;;;;;;14.07;9.10;;;0.50;99.90;;;;;;5032723;28;20475;-72
2023/11/28 06:32:03;;;;;;;13.30;8.60;;;0.50;99.90;;;;;;5032402;28;20026;-70
2023/11/28 06:34:29;;;;;;;17.45;8.18;;;0.50;99.90;;;;;;5032305;28;20029;-64
2023/11/28 06:36:54;;;;;;;11.43;8.35;;;0.50;99.90;;;;;;5032725;28;20086;-64
2023/11/28 06:39:23;;;;;;;13.43;8.02;;;0.40;99.90;;;;;;5032665;28;20056;-66
2023/11/28 06:41:49;;;;;;;13.32;8.68;;;0.40;99.90;;;;;;5032605;28;20028;-66
2023/11/28 06:44:14;;;;;;;15.15;9.65;;;0.40;99.90;;;;;;5032574;28;20088;-66
2023/11/28 06:46:40;;;;;;;16.95;9.52;;;0.40;99.90;;;;;;5032659;28;20025;-65
2023/11/28 06:49:06;;;;;;;12.60;8.02;;;0.40;99.90;;;;;;5032664;28;20395;-66
2023/11/28 06:51:32;;;;;;;13.30;7.90;;;0.40;99.90;;;;;;5032733;28;20061;-66
2023/11/28 06:53:58;;;;;;;15.55;8.95;;;0.40;99.90;;;;;;5032188;28;20431;-65
2023/11/28 06:56:24;;;;;;;14.30;8.27;;;0.40;99.90;;;;;;5030727;28;20044;-68
2023/11/28 06:58:51;;;;;;;12.27;6.93;;;0.40;99.90;;;;;;5031071;28;20375;-66
2023/11/28 07:01:17;;;;;;;14.75;9.50;;;0.40;99.90;;;;;;5030733;28;20391;-66
2023/11/28 07:03:42;;;;;;;12.40;8.32;;;0.40;99.90;;;;;;5035191;28;20036;-66
2023/11/28 07:06:08;;;;;;;13.77;8.32;;;0.40;99.90;;;;;;5036488;28;20099;-66
2023/11/28 07:08:34;;;;;;;14.18;9.30;;;0.30;99.90;;;;;;5035903;28;20036;-67
2023/11/28 07:11:00;;;;;;;14.52;9.15;;;0.30;99.90;;;;;;5035592;28;20113;-66
2023/11/28 07:13:25;;;;;;;14.93;8.30;;;0.30;99.90;;;;;;5035922;28;20029;-67
2023/11/28 07:15:51;;;;;;;15.32;8.48;;;0.20;99.90;;;;;;5035799;28;20546;-66
2023/11/28 07:18:20;;;;;;;14.13;8.55;;;0.20;99.90;;;;;;5035721;28;20232;-66
2023/11/28 07:20:47;;;;;;;10.70;7.25;;;0.20;99.90;;;;;;5034723;28;20104;-66
2023/11/28 07:23:13;;;;;;;12.30;7.95;;;0.10;99.90;;;;;;5033490;28;20021;-66
2023/11/28 07:25:39;;;;;;;14.93;7.95;;;0.10;99.90;;;;;;5034274;28;20018;-66
2023/11/28 07:28:05;;;;;;;14.35;7.75;;;0.10;99.90;;;;;;5035368;28;20041;-68
2023/11/28 07:30:30;;;;;;;10.63;7.20;;;0.00;99.90;;;;;;5035119;28;20471;-66
2023/11/28 07:32:56;;;;;;;12.63;7.57;;;0.00;99.90;;;;;;5029698;28;20458;-67
2023/11/28 07:35:21;;;;;;;13.32;7.63;;;0.00;99.90;;;;;;5020869;28;20028;-64
2023/11/28 07:37:47;;;;;;;12.00;7.68;;;0.00;99.90;;;;;;5029572;28;20106;-65
2023/11/28 07:40:12;;;;;;;11.27;6.65;;;0.00;99.90;;;;;;5035332;28;20029;-66
2023/11/28 07:42:38;;;;;;;12.35;6.97;;;0.00;99.90;;;;;;5035775;28;20471;-66
2023/11/28 07:45:04;;;;;;;11.88;6.30;;;0.00;99.90;;;;;;5033358;28;20046;-68
2023/11/28 07:47:30;;;;;;;9.38;5.78;;;0.00;99.90;;;;;;5033096;28;20021;-66
2023/11/28 07:49:55;;;;;;;8.68;5.72;;;0.00;99.90;;;;;;5034245;28;20040;-65
2023/11/28 07:52:21;;;;;;;8.23;5.63;;;0.00;99.90;;;;;;5034467;28;20087;-64
2023/11/28 07:54:47;;;;;;;8.77;5.47;;;0.00;99.90;;;;;;5033608;28;20033;-68
2023/11/28 07:57:12;;;;;;;9.13;5.68;;;0.00;99.90;;;;;;5031224;28;20041;-65
2023/11/28 07:59:38;;;;;;;8.18;4.82;;;0.10;99.90;;;;;;5033700;28;20459;-69
2023/11/28 08:02:04;;;;;;;8.50;4.68;;;0.30;99.90;;;;;;5031704;28;20036;-68
2023/11/28 08:04:30;;;;;;;7.38;4.57;;;0.40;99.90;;;;;;5033536;28;20026;-68
2023/11/28 08:06:55;;;;;;;7.03;4.57;;;0.70;99.90;;;;;;5034953;28;20442;-68
2023/11/28 08:09:22;;;;;;;5.82;4.20;;;1.50;99.90;;;;;;5034866;28;20054;-67
2023/11/28 08:11:49;;;;;;;5.70;3.97;;;1.60;99.90;;;;;;5034714;28;20518;-67
2023/11/28 08:14:16;;;;;;;4.88;3.58;;;1.80;89.10;;;;;;5034087;28;20038;-66
2023/11/28 08:16:41;;;;;;;4.78;3.67;;;2.60;67.40;;;;;;5030690;28;20051;-67
2023/11/28 08:19:07;;;;;;;4.22;3.25;;;2.60;24.70;;;;;;5023593;28;20443;-68
2023/11/28 08:21:32;;;;;;;4.45;3.33;;;2.60;41.60;;;;;;5034247;28;20029;-68
2023/11/28 08:23:58;;;;;;;3.85;3.10;;;2.30;29.20;;;;;;5034738;28;20447;-68
2023/11/28 08:26:24;;;;;;;5.60;3.20;;;2.90;1.00;;;;;;5034486;28;20022;-66
2023/11/28 08:28:49;;;;;;;4.05;2.72;;;2.70;1.00;;;;;;5034373;28;20423;-67
2023/11/28 08:31:15;;;;;;;4.03;3.20;;;2.50;8.00;;;;;;5034433;28;20030;-67
2023/11/28 08:33:40;;;;;;;3.70;2.95;;;2.90;14.50;;;;;;5034593;28;20037;-68
2023/11/28 08:36:06;;;;;;;4.05;2.92;;;3.50;1.00;;;;;;5034680;28;20472;-66
2023/11/28 08:38:32;;;;;;;3.30;3.00;;;3.50;1.00;;;;;;5033964;28;20029;-66
2023/11/28 08:40:57;;;;;;;3.58;2.65;;;4.20;1.00;;;;;;5034197;28;20021;-66
2023/11/28 08:43:23;;;;;;;2.80;2.47;;;3.10;1.00;;;;;;5034450;28;20033;-66
2023/11/28 08:45:49;;;;;;;3.92;2.70;;;3.70;1.00;;;;;;5034055;28;20120;-66
2023/11/28 08:48:15;;;;;;;3.47;2.75;;;3.90;1.00;;;;;;5033579;28;20479;-68
2023/11/28 08:50:40;;;;;;;4.15;2.83;;;3.80;1.00;;;;;;5034096;28;20083;-68
2023/11/28 08:53:07;;;;;;;4.80;3.10;;;4.10;1.00;;;;;;5032795;28;20073;-69
2023/11/28 08:55:33;;;;;;;3.00;2.70;;;3.90;1.00;;;;;;5033191;28;20109;-66
2023/11/28 08:57:59;;;;;;;5.28;3.25;;;3.90;1.00;;;;;;5033494;28;20041;-67
2023/11/28 09:00:24;;;;;;;6.50;3.70;;;3.30;1.00;;;;;;5033701;28;20029;-67
2023/11/28 09:02:51;;;;;;;6.82;3.80;;;3.20;1.00;;;;;;5033742;28;20025;-66
2023/11/28 09:05:17;;;;;;;4.28;3.28;;;3.30;1.00;;;;;;5030592;28;20505;-67
2023/11/28 09:07:44;;;;;;;4.30;3.58;;;3.50;1.00;;;;;;5032418;28;20192;-66
2023/11/28 09:10:11;;;;;;;3.75;3.13;;;4.00;1.00;;;;;;5040847;28;20033;-69
2023/11/28 09:12:37;;;;;;;3.75;3.17;;;4.50;1.00;;;;;;5033275;28;20041;-67
2023/11/28 09:15:04;;;;;;;5.63;3.92;;;4.40;1.00;;;;;;5036419;28;20033;-69
2023/11/28 09:17:29;;;;;;;5.05;3.65;;;5.10;99.90;;;;;;5032608;28;20026;-66
2023/11/28 09:19:55;;;;;;;4.88;3.45;;;4.90;99.90;;;;;;5033280;28;20064;-66
2023/11/28 09:22:20;;;;;;;6.80;4.88;;;4.10;1.00;;;;;;5033864;28;20025;-68
2023/11/28 09:24:46;;;;;;;5.65;4.07;;;3.60;1.00;;;;;;5031016;28;20029;-67
2023/11/28 09:27:12;;;;;;;5.95;3.50;;;3.40;1.00;;;;;;5031125;28;20029;-69
2023/11/28 09:29:38;;;;;;;3.58;2.88;;;3.50;1.00;;;;;;5038938;28;20128;-67
2023/11/28 09:32:04;;;;;;;4.55;3.50;;;2.90;1.00;;;;;;5044915;28;20112;-67
2023/11/28 09:34:31;;;;;;;5.13;3.92;;;3.20;1.00;;;;;;5039365;28;20486;-66
2023/11/28 09:36:57;;;;;;;6.22;3.47;;;3.30;1.00;;;;;;5030876;28;20112;-66
2023/11/28 09:39:23;;;;;;;4.25;3.03;;;4.20;1.00;;;;;;5032064;28;20104;-69
2023/11/28 09:41:50;;;;;;;3.67;3.13;;;5.30;1.00;;;;;;5038688;28;20029;-68
2023/11/28 09:44:17;;;;;;;6.00;3.35;;;4.90;99.90;;;;;;5044952;28;20056;-67
2023/11/28 09:46:48;;;;;;;5.75;3.58;;;5.00;99.90;;;;;;5030723;28;20084;-68
2023/11/28 09:49:16;;;;;;;5.65;3.25;;;5.40;1.00;;;;;;5035525;28;20036;-69
2023/11/28 09:51:46;;;;;;;3.88;3.47;;;4.60;99.90;;;;;;5034597;28;20041;-68
2023/11/28 09:54:14;;;;;;;4.00;3.40;;;5.00;99.90;;;;;;5029701;28;20052;-67
2023/11/28 09:56:41;;;;;;;4.10;3.42;;;4.50;99.90;;;;;;5031390;28;20562;-66
2023/11/28 09:59:11;;;;;;;4.65;3.42;;;5.00;99.90;;;;;;5033187;28;20378;-69
2023/11/28 10:01:39;;;;;;;4.53;3.60;;;4.40;1.00;;;;;;5038538;28;20017;-68
2023/11/28 10:04:05;;;;;;;5.22;3.95;;;4.40;1.00;;;;;;5039759;28;20065;-67
2023/11/28 10:06:32;;;;;;;7.10;4.03;;;4.30;1.00;;;;;;5032455;28;20076;-68
2023/11/28 10:09:01;;;;;;;4.82;3.90;;;4.30;1.00;;;;;;5036973;28;20028;-67
2023/11/28 10:11:31;;;;;;;5.22;4.22;;;3.40;1.00;;;;;;5044661;28;20090;-68
2023/11/28 10:13:56;;;;;;;7.95;5.20;;;3.30;1.00;;;;;;5049871;28;20079;-68
2023/11/28 10:16:42;;;;;;;5.82;4.65;;;3.00;3.30;;;;;;5035070;28;20150;-68
2023/11/28 10:19:08;;;;;;;8.43;5.28;;;2.90;13.90;;;;;;5032075;28;20442;-66
2023/11/28 10:21:34;;;;;;;6.60;4.78;;;2.80;28.40;;;;;;5032336;28;20030;-68
2023/11/28 10:24:00;;;;;;;7.00;5.03;;;2.80;29.10;;;;;;5032470;28;20033;-68
2023/11/28 10:26:26;;;;;;;7.00;5.70;;;2.70;27.80;;;;;;5031814;28;20488;-68
2023/11/28 10:28:51;;;;;;;8.52;5.60;;;2.50;45.30;;;;;;5031980;28;20033;-68
2023/11/28 10:31:18;;;;;;;11.95;5.88;;;2.50;47.90;;;;;;5031379;28;20171;-68
2023/11/28 10:33:43;;;;;;;7.57;5.05;;;2.20;60.90;;;;;;5031399;28;20457;-69
2023/11/28 10:36:10;;;;;;;8.65;5.63;;;2.10;84.40;;;;;;5034981;28;20034;-68
2023/11/28 10:38:37;;;;;;;8.35;5.53;;;2.00;85.30;;;;;;5034403;28;20119;-66
2023/11/28 10:41:02;;;;;;;7.35;5.28;;;2.10;89.60;;;;;;5035247;28;20069;-66
2023/11/28 10:43:29;;;;;;;8.23;5.72;;;2.10;78.70;;;;;;5040053;28;20057;-68
2023/11/28 10:45:56;;;;;;;9.77;5.90;;;2.00;78.60;;;;;;5033727;28;20029;-68
2023/11/28 10:48:22;;;;;;;9.68;5.60;;;2.10;88.90;;;;;;5035770;28;20454;-67
2023/11/28 10:50:48;;;;;;;7.40;5.38;;;2.00;88.40;;;;;;5037378;28;20041;-68
2023/11/28 10:53:16;;;;;;;6.95;5.03;;;1.90;68.30;;;;;;5035681;28;20037;-68
2023/11/28 10:55:50;;;;;;;7.93;5.78;;;1.90;73.70;;;;;;5034869;28;20481;-68
2023/11/28 10:58:16;;;;;;;8.63;5.30;;;2.40;76.40;;;;;;5035065;28;20056;-69
2023/11/28 11:00:44;;;;;;;6.93;4.90;;;3.50;42.00;;;;;;5021267;28;20021;-68
2023/11/28 11:03:13;;;;;;;4.00;3.50;;;4.30;1.00;;;;;;5033691;28;20494;-68
2023/11/28 11:05:40;;;;;;;4.57;3.22;;;5.10;99.90;;;;;;5020797;28;20026;-69
2023/11/28 11:08:06;;;;;;;4.93;3.00;;;3.90;99.90;;;;;;5035894;28;20029;-67
2023/11/28 11:10:31;;;;;;;3.53;3.13;;;3.30;1.00;;;;;;5033793;28;20035;-67
2023/11/28 11:13:10;;;;;;;3.40;3.08;;;2.80;1.00;;;;;;5027234;28;20034;-67
2023/11/28 11:16:02;;;;;;;6.03;3.80;;;2.30;1.00;;;;;;5019936;28;20037;-67
2023/11/28 11:18:34;;;;;;;6.07;4.00;;;2.20;1.00;;;;;;5002773;28;20084;-67
2023/11/28 11:21:12;;;;;;;4.53;3.73;;;2.30;1.00;;;;;;5015645;28;20046;-67
2023/11/28 11:23:44;;;;;;;5.80;4.20;;;2.30;1.00;;;;;;5028546;28;20026;-67
2023/11/28 11:26:10;;;;;;;6.38;4.35;;;2.40;1.00;;;;;;5035060;28;20036;-67
2023/11/28 11:28:36;;;;;;;6.30;4.60;;;2.80;1.00;;;;;;5032149;28;20038;-67
2023/11/28 11:31:11;;;;;;;5.55;4.18;;;2.80;1.00;;;;;;5023230;28;20044;-67
2023/11/28 11:33:37;;;;;;;4.78;3.50;;;3.40;1.00;;;;;;5029136;28;20192;-67
2023/11/28 11:36:07;;;;;;;4.75;4.20;;;3.60;1.00;;;;;;5023687;28;20057;-68
2023/11/28 11:38:35;;;;;;;5.97;3.90;;;3.90;1.00;;;;;;5026822;28;20462;-68
2023/11/28 11:41:04;;;;;;;6.75;3.90;;;3.60;1.00;;;;;;5015155;28;20030;-67
2023/11/28 11:43:35;;;;;;;7.82;4.43;;;3.00;1.00;;;;;;5017600;28;20498;-67
2023/11/28 11:46:11;;;;;;;4.53;3.55;;;2.80;1.00;;;;;;5026188;28;20447;-67
2023/11/28 11:48:39;;;;;;;4.57;3.60;;;2.70;1.00;;;;;;5031588;28;20055;-67
2023/11/28 11:51:05;;;;;;;4.63;3.67;;;2.60;1.00;;;;;;5034403;28;20021;-67
2023/11/28 11:53:31;;;;;;;6.40;3.60;;;2.30;1.00;;;;;;5035052;28;20479;-68
2023/11/28 11:56:01;;;;;;;6.75;4.40;;;2.40;1.00;;;;;;5028472;28;20116;-67
2023/11/28 11:58:28;;;;;;;5.63;4.32;;;2.40;1.00;;;;;;5034348;28;20030;-68
2023/11/28 12:00:54;;;;;;;4.53;3.42;;;2.60;1.00;;;;;;5034645;28;20033;-67
2023/11/28 12:03:21;;;;;;;4.65;3.30;;;2.90;1.00;;;;;;5033795;28;20174;-68
2023/11/28 12:05:51;;;;;;;4.20;3.38;;;3.10;1.00;;;;;;5032738;28;20040;-67
2023/11/28 12:08:17;;;;;;;3.67;3.33;;;3.20;1.00;;;;;;5035032;28;20507;-67
2023/11/28 12:10:43;;;;;;;4.43;3.70;;;3.20;1.00;;;;;;5034892;28;20488;-67
2023/11/28 12:13:11;;;;;;;5.07;3.75;;;3.40;1.00;;;;;;5034936;28;20041;-67
2023/11/28 12:15:37;;;;;;;6.90;3.67;;;3.20;1.00;;;;;;5034084;28;20049;-68
2023/11/28 12:18:11;;;;;;;6.80;4.65;;;3.00;1.00;;;;;;5034700;28;20460;-67
2023/11/28 12:20:37;;;;;;;3.97;3.40;;;3.10;1.00;;;;;;5024052;28;20041;-67
2023/11/28 12:23:02;;;;;;;4.25;3.47;;;3.10;1.00;;;;;;5034707;28;20044;-67
2023/11/28 12:25:31;;;;;;;4.30;3.90;;;2.90;1.00;;;;;;5034379;28;20032;-68
2023/11/28 12:27:58;;;;;;;4.82;3.72;;;3.10;1.00;;;;;;5034385;28;20033;-68
2023/11/28 12:30:24;;;;;;;4.55;3.30;;;3.10;1.00;;;;;;5034696;28;20495;-68
2023/11/28 12:32:50;;;;;;;5.78;4.10;;;3.00;1.00;;;;;;5034651;28;20061;-68
2023/11/28 12:35:17;;;;;;;5.80;3.80;;;3.00;1.00;;;;;;5033917;28;20056;-68
2023/11/28 12:37:46;;;;;;;4.40;3.60;;;2.90;1.00;;;;;;5014712;28;20044;-68
2023/11/28 12:40:12;;;;;;;4.55;3.70;;;3.00;1.00;;;;;;5030738;28;20030;-68
2023/11/28 12:42:46;;;;;;;6.05;3.78;;;2.90;1.00;;;;;;5032720;28;20439;-68
2023/11/28 12:45:12;;;;;;;5.50;3.83;;;2.80;1.00;;;;;;5033458;28;20430;-68